createdAt,value
2017-12-04T00:01:59.412Z,1.50
2017-12-04T00:04:27.361Z,1.40
2017-12-04T00:06:55.301Z,1.40
2017-12-04T00:09:24.050Z,1.50
2017-12-04T00:11:52.015Z,1.50
2017-12-04T00:14:19.969Z,1.40
2017-12-04T00:16:48.480Z,1.40
2017-12-04T00:19:16.398Z,1.50
2017-12-04T00:21:45.296Z,1.40
2017-12-04T00:24:13.217Z,1.50
2017-12-04T00:26:42.506Z,1.50
2017-12-04T00:29:10.402Z,1.40
2017-12-04T00:31:38.337Z,1.50
2017-12-04T00:34:08.407Z,1.50
2017-12-04T00:36:36.345Z,1.50
2017-12-04T00:39:05.089Z,1.50
2017-12-04T00:41:33.045Z,1.40
2017-12-04T00:44:00.918Z,1.40
2017-12-04T00:46:28.901Z,1.40
2017-12-04T00:48:56.863Z,1.40
2017-12-04T00:51:24.843Z,1.40
2017-12-04T00:53:52.842Z,1.50
2017-12-04T00:56:20.741Z,1.50
2017-12-04T00:58:51.580Z,1.50
2017-12-04T01:01:22.497Z,1.60
2017-12-04T01:03:51.189Z,1.50
2017-12-04T01:06:21.307Z,1.40
2017-12-04T01:08:50.023Z,1.40
2017-12-04T01:11:17.982Z,1.40
2017-12-04T01:13:45.943Z,1.40
2017-12-04T01:16:14.626Z,1.40
2017-12-04T01:18:42.816Z,1.50
2017-12-04T01:21:10.806Z,1.40
2017-12-04T01:23:38.888Z,1.40
2017-12-04T01:26:06.858Z,1.40
2017-12-04T01:28:34.793Z,1.40
2017-12-04T01:31:03.415Z,1.50
2017-12-04T01:33:31.421Z,1.50
2017-12-04T01:36:04.126Z,1.50
2017-12-04T01:38:32.086Z,1.40
2017-12-04T01:41:00.777Z,1.40
2017-12-04T01:43:28.749Z,1.40
2017-12-04T01:45:56.687Z,1.40
2017-12-04T01:48:24.657Z,1.40
2017-12-04T01:50:52.634Z,1.40
2017-12-04T01:53:20.637Z,1.40
2017-12-04T01:55:48.581Z,1.50
2017-12-04T01:58:16.592Z,1.50
2017-12-04T02:00:44.593Z,1.40
2017-12-04T02:03:13.419Z,1.40
2017-12-04T02:05:41.586Z,1.40
2017-12-04T02:08:09.509Z,1.40
2017-12-04T02:10:37.682Z,1.40
2017-12-04T02:13:05.817Z,1.50
2017-12-04T02:15:34.024Z,1.50
2017-12-04T02:18:02.113Z,1.50
2017-12-04T02:20:30.220Z,1.50
2017-12-04T02:22:58.234Z,1.50
2017-12-04T02:25:26.331Z,1.40
2017-12-04T02:27:54.341Z,1.50
2017-12-04T02:30:25.443Z,1.50
2017-12-04T02:32:53.501Z,1.50
2017-12-04T02:35:21.648Z,1.40
2017-12-04T02:37:49.802Z,1.40
2017-12-04T02:40:17.984Z,1.50
2017-12-04T02:42:46.072Z,1.50
2017-12-04T02:45:14.253Z,1.50
2017-12-04T02:47:42.426Z,1.50
2017-12-04T02:50:10.704Z,1.50
2017-12-04T02:52:38.895Z,1.60
2017-12-04T02:55:07.131Z,1.60
2017-12-04T02:57:35.330Z,1.60
2017-12-04T03:00:03.513Z,1.60
2017-12-04T03:02:31.659Z,1.50
2017-12-04T03:04:59.839Z,1.50
2017-12-04T03:07:27.958Z,1.50
2017-12-04T03:09:56.156Z,1.50
2017-12-04T03:12:25.076Z,1.50
2017-12-04T03:14:53.202Z,1.50
2017-12-04T03:17:21.503Z,1.60
2017-12-04T03:19:50.424Z,1.60
2017-12-04T03:22:18.565Z,1.60
2017-12-04T03:24:47.414Z,1.60
2017-12-04T03:27:19.574Z,1.60
2017-12-04T03:29:47.672Z,1.60
2017-12-04T03:32:15.715Z,1.60
2017-12-04T03:34:43.767Z,1.70
2017-12-04T03:37:11.833Z,1.60
2017-12-04T03:39:39.889Z,1.60
2017-12-04T03:42:08.027Z,1.60
2017-12-04T03:44:36.114Z,1.70
2017-12-04T03:47:08.153Z,1.70
2017-12-04T03:49:36.994Z,1.60
2017-12-04T03:52:05.095Z,1.60
2017-12-04T03:54:33.167Z,1.70
2017-12-04T03:57:01.322Z,1.70
2017-12-04T03:59:29.401Z,1.70
2017-12-04T04:01:58.273Z,1.80
2017-12-04T04:04:26.294Z,1.70
2017-12-04T04:06:54.335Z,1.80
2017-12-04T04:09:22.293Z,1.70
2017-12-04T04:11:50.331Z,1.80
2017-12-04T04:14:18.748Z,1.70
2017-12-04T04:16:48.095Z,1.70
2017-12-04T04:19:16.218Z,1.60
2017-12-04T04:21:45.173Z,1.70
2017-12-04T04:24:13.426Z,1.60
2017-12-04T04:26:41.369Z,1.60
2017-12-04T04:29:09.449Z,1.70
2017-12-04T04:31:38.271Z,1.60
2017-12-04T04:34:06.428Z,1.60
2017-12-04T04:36:34.537Z,1.60
2017-12-04T04:39:02.764Z,1.60
2017-12-04T04:41:30.896Z,1.70
2017-12-04T04:43:59.071Z,1.60
2017-12-04T04:46:27.331Z,1.60
2017-12-04T04:48:55.467Z,1.70
2017-12-04T04:51:23.626Z,1.70
2017-12-04T04:53:51.830Z,1.70
2017-12-04T04:56:19.852Z,1.70
2017-12-04T04:58:48.042Z,1.70
2017-12-04T05:01:16.174Z,1.70
2017-12-04T05:03:44.232Z,1.60
2017-12-04T05:06:13.017Z,1.60
2017-12-04T05:08:41.894Z,1.60
2017-12-04T05:11:09.852Z,1.50
2017-12-04T05:13:37.897Z,1.60
2017-12-04T05:16:12.957Z,1.70
2017-12-04T05:18:48.507Z,1.70
2017-12-04T05:21:24.245Z,1.80
2017-12-04T05:23:54.820Z,1.80
2017-12-04T05:26:23.042Z,1.80
2017-12-04T05:28:51.922Z,1.80
2017-12-04T05:31:19.917Z,1.70
2017-12-04T05:33:47.913Z,1.80
2017-12-04T05:36:16.677Z,1.70
2017-12-04T05:38:44.707Z,1.70
2017-12-04T05:41:12.718Z,1.70
2017-12-04T05:43:40.681Z,1.70
2017-12-04T05:46:08.711Z,1.80
2017-12-04T05:48:36.687Z,1.80
2017-12-04T05:51:04.734Z,1.70
2017-12-04T05:53:32.670Z,1.80
2017-12-04T05:56:01.948Z,1.70
2017-12-04T05:58:29.919Z,1.70
2017-12-04T06:00:57.947Z,1.70
2017-12-04T06:03:25.912Z,1.70
2017-12-04T06:05:53.889Z,1.70
2017-12-04T06:08:21.807Z,1.70
2017-12-04T06:10:49.799Z,1.70
2017-12-04T06:13:17.740Z,1.70
2017-12-04T06:15:45.698Z,1.60
2017-12-04T06:18:13.638Z,1.60
2017-12-04T06:20:41.607Z,1.60
2017-12-04T06:23:10.344Z,1.60
2017-12-04T06:25:38.341Z,1.60
2017-12-04T06:28:06.281Z,1.60
2017-12-04T06:30:34.288Z,1.60
2017-12-04T06:33:02.325Z,1.60
2017-12-04T06:35:30.298Z,1.60
2017-12-04T06:37:58.228Z,1.70
2017-12-04T06:40:26.306Z,1.70
2017-12-04T06:42:54.994Z,1.70
2017-12-04T06:45:23.007Z,1.70
2017-12-04T06:47:51.080Z,1.70
2017-12-04T06:50:19.004Z,1.80
2017-12-04T06:52:46.973Z,1.80
2017-12-04T06:55:14.953Z,1.80
2017-12-04T06:57:42.941Z,1.80
2017-12-04T07:00:10.871Z,1.80
2017-12-04T07:02:38.896Z,1.80
2017-12-04T07:05:06.822Z,1.80
2017-12-04T07:07:34.776Z,1.80
2017-12-04T07:10:02.706Z,1.80
2017-12-04T07:12:30.735Z,1.80
2017-12-04T07:14:58.661Z,1.80
2017-12-04T07:17:26.732Z,1.70
2017-12-04T07:19:54.629Z,1.70
2017-12-04T07:22:22.580Z,1.70
2017-12-04T07:24:50.490Z,1.80
2017-12-04T07:27:18.438Z,1.70
2017-12-04T07:29:46.344Z,1.70
2017-12-04T07:32:14.293Z,1.70
2017-12-04T07:34:42.187Z,1.70
2017-12-04T07:37:11.285Z,1.80
2017-12-04T07:39:39.213Z,1.80
2017-12-04T07:42:07.190Z,1.80
2017-12-04T07:44:35.867Z,1.80
2017-12-04T07:47:03.905Z,1.80
2017-12-04T07:49:31.818Z,1.90
2017-12-04T07:51:59.789Z,1.90
2017-12-04T07:54:27.696Z,1.90
2017-12-04T07:56:55.600Z,2.00
2017-12-04T07:59:23.552Z,2.10
2017-12-04T08:01:51.438Z,2.10
2017-12-04T08:04:19.461Z,2.20
2017-12-04T08:06:47.401Z,2.20
2017-12-04T08:09:15.397Z,2.20
2017-12-04T08:11:43.298Z,2.20
2017-12-04T08:14:11.236Z,2.20
2017-12-04T08:16:39.194Z,2.30
2017-12-04T08:19:07.920Z,2.30
2017-12-04T08:21:35.885Z,2.30
2017-12-04T08:24:03.898Z,2.20
2017-12-04T08:26:31.856Z,2.20
2017-12-04T08:28:59.815Z,2.30
2017-12-04T08:31:27.737Z,2.30
2017-12-04T08:33:55.697Z,2.40
2017-12-04T08:36:24.389Z,2.70
2017-12-04T08:38:53.132Z,2.80
2017-12-04T08:41:21.013Z,2.80
2017-12-04T08:43:49.033Z,2.90
2017-12-04T08:46:21.637Z,3.10
2017-12-04T08:48:49.609Z,3.10
2017-12-04T08:51:17.610Z,3.20
2017-12-04T08:53:45.576Z,3.20
2017-12-04T08:56:15.872Z,3.30
2017-12-04T08:58:49.645Z,3.40
2017-12-04T09:01:18.674Z,3.60
2017-12-04T09:03:46.705Z,3.60
2017-12-04T09:06:16.644Z,3.80
2017-12-04T09:08:44.635Z,3.80
2017-12-04T09:11:12.752Z,3.90
2017-12-04T09:13:41.431Z,4.00
2017-12-04T09:16:09.658Z,4.00
2017-12-04T09:18:37.620Z,4.00
2017-12-04T09:21:05.669Z,4.10
2017-12-04T09:23:34.369Z,4.10
2017-12-04T09:26:03.202Z,4.20
2017-12-04T09:28:31.142Z,4.20
2017-12-04T09:30:59.153Z,4.20
2017-12-04T09:33:27.128Z,4.20
2017-12-04T09:35:56.325Z,4.20
2017-12-04T09:38:24.675Z,4.20
2017-12-04T09:40:52.722Z,4.20
2017-12-04T09:43:20.764Z,4.30
2017-12-04T09:45:48.790Z,4.30
2017-12-04T09:48:16.743Z,4.40
2017-12-04T09:50:44.732Z,4.50
2017-12-04T09:53:12.645Z,4.50
2017-12-04T09:55:40.640Z,4.50
2017-12-04T09:58:08.583Z,4.50
2017-12-04T10:00:36.602Z,4.50
2017-12-04T10:03:04.587Z,4.50
2017-12-04T10:05:32.632Z,4.50
2017-12-04T10:08:00.548Z,4.50
2017-12-04T10:10:28.517Z,4.50
2017-12-04T10:12:56.527Z,4.50
2017-12-04T10:15:24.675Z,4.50
2017-12-04T10:17:52.632Z,4.50
2017-12-04T10:20:20.636Z,4.60
2017-12-04T10:22:49.349Z,4.60
2017-12-04T10:25:17.426Z,4.60
2017-12-04T10:27:45.610Z,4.60
2017-12-04T10:30:13.643Z,4.60
2017-12-04T10:32:42.457Z,4.70
2017-12-04T10:35:10.404Z,4.70
2017-12-04T10:37:38.407Z,4.70
2017-12-04T10:40:06.730Z,4.70
2017-12-04T10:42:34.759Z,4.70
2017-12-04T10:45:02.728Z,4.70
2017-12-04T10:47:30.964Z,4.70
2017-12-04T10:50:01.266Z,4.70
2017-12-04T10:52:29.387Z,4.70
2017-12-04T10:54:57.349Z,4.80
2017-12-04T10:57:32.867Z,4.80
2017-12-04T11:00:00.878Z,4.70
2017-12-04T11:02:29.009Z,4.80
2017-12-04T11:04:57.019Z,4.80
2017-12-04T11:07:24.995Z,4.90
2017-12-04T11:09:52.973Z,4.90
2017-12-04T11:12:20.984Z,4.90
2017-12-04T11:14:48.986Z,5.00
2017-12-04T11:17:21.751Z,5.10
2017-12-04T11:19:49.679Z,5.00
2017-12-04T11:22:17.730Z,5.10
2017-12-04T11:24:45.762Z,5.20
2017-12-04T11:27:13.773Z,5.10
2017-12-04T11:29:41.687Z,5.10
2017-12-04T11:32:09.639Z,5.10
2017-12-04T11:34:37.559Z,5.10
2017-12-04T11:37:05.477Z,5.10
2017-12-04T11:39:33.450Z,5.20
2017-12-04T11:42:01.353Z,5.20
2017-12-04T11:44:29.309Z,5.20
2017-12-04T11:46:57.381Z,5.20
2017-12-04T11:49:25.332Z,5.20
2017-12-04T11:51:53.299Z,5.20
2017-12-04T11:54:21.264Z,5.30
2017-12-04T11:56:56.479Z,5.30
2017-12-04T11:59:24.851Z,5.30
2017-12-04T12:01:52.783Z,5.30
2017-12-04T12:04:20.864Z,5.30
2017-12-04T12:06:48.984Z,5.30
2017-12-04T12:09:16.961Z,5.30
2017-12-04T12:11:44.916Z,5.30
2017-12-04T12:14:12.946Z,5.20
2017-12-04T12:16:40.898Z,5.20
2017-12-04T12:19:08.947Z,5.20
2017-12-04T12:21:36.903Z,5.20
2017-12-04T12:24:04.832Z,5.20
2017-12-04T12:26:32.734Z,5.30
2017-12-04T12:29:00.691Z,5.30
2017-12-04T12:31:29.368Z,5.30
2017-12-04T12:33:57.348Z,5.30
2017-12-04T12:36:27.450Z,5.30
2017-12-04T12:38:55.418Z,5.30
2017-12-04T12:41:23.333Z,5.20
2017-12-04T12:43:51.345Z,5.20
2017-12-04T12:46:19.284Z,5.20
2017-12-04T12:48:47.238Z,5.30
2017-12-04T12:51:15.228Z,5.30
2017-12-04T12:53:43.159Z,5.30
2017-12-04T12:56:11.136Z,5.30
2017-12-04T12:58:39.844Z,5.30
2017-12-04T13:01:07.814Z,5.40
2017-12-04T13:03:35.749Z,5.30
2017-12-04T13:06:08.315Z,5.30
2017-12-04T13:08:36.281Z,5.30
2017-12-04T13:11:04.269Z,5.30
2017-12-04T13:13:32.954Z,5.30
2017-12-04T13:16:00.917Z,5.30
2017-12-04T13:18:28.826Z,5.30
2017-12-04T13:20:56.801Z,5.30
2017-12-04T13:23:24.726Z,5.40
2017-12-04T13:25:52.675Z,5.30
2017-12-04T13:28:20.596Z,5.30
2017-12-04T13:30:49.021Z,5.30
2017-12-04T13:33:28.474Z,5.30
2017-12-04T13:36:08.034Z,5.30
2017-12-04T13:38:36.153Z,5.40
2017-12-04T13:41:04.216Z,5.40
2017-12-04T13:43:32.561Z,5.30
2017-12-04T13:46:04.260Z,5.30
2017-12-04T13:48:32.240Z,5.40
2017-12-04T13:51:01.935Z,5.40
2017-12-04T13:53:29.823Z,5.40
2017-12-04T13:55:58.095Z,5.40
2017-12-04T13:58:25.992Z,5.40
2017-12-04T14:00:53.972Z,5.40
2017-12-04T14:03:21.974Z,5.40
2017-12-04T14:05:49.962Z,5.40
2017-12-04T14:08:17.964Z,5.40
2017-12-04T14:10:45.935Z,5.30
2017-12-04T14:13:13.918Z,5.40
2017-12-04T14:15:41.880Z,5.40
2017-12-04T14:18:09.934Z,5.40
2017-12-04T14:20:37.903Z,5.40
2017-12-04T14:23:05.854Z,5.40
2017-12-04T14:25:33.762Z,5.40
2017-12-04T14:28:01.737Z,5.40
2017-12-04T14:30:29.673Z,5.40
2017-12-04T14:32:57.662Z,5.40
2017-12-04T14:35:26.504Z,5.40
2017-12-04T14:37:55.249Z,5.40
2017-12-04T14:40:23.209Z,5.40
2017-12-04T14:42:51.163Z,5.40
2017-12-04T14:45:19.111Z,5.40
2017-12-04T14:47:47.161Z,5.40
2017-12-04T14:50:15.869Z,5.40
2017-12-04T14:52:43.896Z,5.40
2017-12-04T14:55:11.869Z,5.50
2017-12-04T14:57:39.957Z,5.40
2017-12-04T15:00:07.974Z,5.40
2017-12-04T15:02:35.962Z,5.40
2017-12-04T15:05:03.980Z,5.40
2017-12-04T15:07:34.908Z,5.40
2017-12-04T15:10:02.939Z,5.40
2017-12-04T15:12:30.968Z,5.50
2017-12-04T15:14:59.804Z,5.50
2017-12-04T15:17:27.850Z,5.40
2017-12-04T15:19:55.883Z,5.40
2017-12-04T15:22:24.084Z,5.40
2017-12-04T15:24:52.082Z,5.40
2017-12-04T15:27:20.125Z,5.30
2017-12-04T15:29:54.754Z,5.40
2017-12-04T15:32:22.734Z,5.40
2017-12-04T15:34:50.766Z,5.40
2017-12-04T15:37:18.755Z,5.30
2017-12-04T15:39:47.561Z,5.30
2017-12-04T15:42:15.532Z,5.30
2017-12-04T15:44:44.310Z,5.40
2017-12-04T15:47:13.033Z,5.40
2017-12-04T15:49:41.080Z,5.30
2017-12-04T15:52:09.058Z,5.40
2017-12-04T15:54:37.106Z,5.40
2017-12-04T15:57:05.852Z,5.40
2017-12-04T15:59:33.885Z,5.30
2017-12-04T16:02:01.862Z,5.40
2017-12-04T16:04:29.868Z,5.30
2017-12-04T16:06:57.879Z,5.40
2017-12-04T16:09:26.648Z,5.40
2017-12-04T16:11:54.620Z,5.40
2017-12-04T16:14:22.722Z,5.30
2017-12-04T16:16:50.694Z,5.40
2017-12-04T16:19:19.489Z,5.40
2017-12-04T16:21:48.114Z,5.40
2017-12-04T16:24:16.090Z,5.40
2017-12-04T16:26:45.167Z,5.40
2017-12-04T16:29:13.144Z,5.40
2017-12-04T16:31:41.108Z,5.40
2017-12-04T16:34:09.191Z,5.40
2017-12-04T16:36:37.144Z,5.50
2017-12-04T16:39:05.219Z,5.40
2017-12-04T16:41:33.201Z,5.40
2017-12-04T16:44:01.267Z,5.40
2017-12-04T16:46:30.363Z,5.50
2017-12-04T16:48:58.336Z,5.50
2017-12-04T16:51:26.262Z,5.50
2017-12-04T16:53:54.258Z,5.40
2017-12-04T16:56:22.328Z,5.40
2017-12-04T16:58:50.309Z,5.40
2017-12-04T17:01:18.335Z,5.50
2017-12-04T17:03:46.356Z,5.40
2017-12-04T17:06:15.367Z,5.40
2017-12-04T17:08:44.610Z,5.40
2017-12-04T17:11:12.612Z,5.40
2017-12-04T17:13:40.609Z,5.40
2017-12-04T17:16:14.319Z,5.40
2017-12-04T17:18:42.322Z,5.40
2017-12-04T17:21:10.342Z,5.40
2017-12-04T17:23:38.391Z,5.40
2017-12-04T17:26:06.365Z,5.40
2017-12-04T17:28:34.422Z,5.40
2017-12-04T17:31:04.629Z,5.40
2017-12-04T17:33:32.575Z,5.40
2017-12-04T17:36:00.544Z,5.40
2017-12-04T17:38:28.463Z,5.40
2017-12-04T17:40:56.428Z,5.40
2017-12-04T17:43:24.416Z,5.40
2017-12-04T17:45:53.377Z,5.40
2017-12-04T17:48:22.113Z,5.50
2017-12-04T17:50:50.133Z,5.50
2017-12-04T17:53:18.030Z,5.50
2017-12-04T17:55:46.016Z,5.50
2017-12-04T17:58:14.108Z,5.50
2017-12-04T18:00:42.197Z,5.50
2017-12-04T18:03:10.150Z,5.50
2017-12-04T18:05:38.209Z,5.50
2017-12-04T18:08:06.172Z,5.50
2017-12-04T18:10:34.217Z,5.50
2017-12-04T18:13:02.942Z,5.50
2017-12-04T18:15:30.984Z,5.50
2017-12-04T18:17:58.956Z,5.50
2017-12-04T18:20:26.980Z,5.50
2017-12-04T18:22:54.988Z,5.60
2017-12-04T18:25:23.767Z,5.60
2017-12-04T18:27:51.759Z,5.60
2017-12-04T18:30:19.764Z,5.60
2017-12-04T18:32:48.206Z,5.60
2017-12-04T18:35:17.027Z,5.50
2017-12-04T18:37:45.125Z,5.50
2017-12-04T18:40:13.198Z,5.60
2017-12-04T18:42:41.218Z,5.60
2017-12-04T18:45:09.266Z,5.50
2017-12-04T18:47:37.277Z,5.50
2017-12-04T18:50:05.388Z,5.50
2017-12-04T18:52:34.815Z,5.50
2017-12-04T18:55:02.986Z,5.50
2017-12-04T18:57:31.010Z,5.50
2017-12-04T18:59:59.074Z,5.50
2017-12-04T19:02:27.923Z,5.50
2017-12-04T19:04:55.960Z,5.50
2017-12-04T19:07:24.134Z,5.60
2017-12-04T19:09:52.214Z,5.50
2017-12-04T19:12:20.221Z,5.50
2017-12-04T19:14:48.247Z,5.50
2017-12-04T19:17:16.365Z,5.50
2017-12-04T19:19:44.399Z,5.50
2017-12-04T19:22:12.409Z,5.50
2017-12-04T19:24:41.169Z,5.50
2017-12-04T19:27:09.223Z,5.50
2017-12-04T19:29:39.483Z,5.50
2017-12-04T19:32:08.820Z,5.50
2017-12-04T19:34:36.858Z,5.50
2017-12-04T19:37:05.011Z,5.50
2017-12-04T19:39:33.151Z,5.50
2017-12-04T19:42:01.256Z,5.50
2017-12-04T19:44:29.321Z,5.50
2017-12-04T19:46:57.486Z,5.40
2017-12-04T19:49:25.626Z,5.50
2017-12-04T19:51:54.446Z,5.50
2017-12-04T19:54:22.460Z,5.50
2017-12-04T19:56:50.494Z,5.50
2017-12-04T19:59:25.712Z,5.50
2017-12-04T20:01:54.238Z,5.50
2017-12-04T20:04:22.266Z,5.50
2017-12-04T20:06:50.335Z,5.50
2017-12-04T20:09:18.330Z,5.50
2017-12-04T20:11:46.386Z,5.50
2017-12-04T20:14:14.470Z,5.60
2017-12-04T20:16:42.621Z,5.50
2017-12-04T20:19:10.678Z,5.40
2017-12-04T20:21:39.583Z,5.40
2017-12-04T20:24:07.658Z,5.50
2017-12-04T20:26:40.330Z,5.40
2017-12-04T20:29:08.433Z,5.40
2017-12-04T20:31:36.419Z,5.40
2017-12-04T20:34:04.505Z,5.40
2017-12-04T20:36:32.486Z,5.40
2017-12-04T20:39:00.542Z,5.40
2017-12-04T20:41:28.574Z,5.50
2017-12-04T20:43:56.628Z,5.40
2017-12-04T20:46:25.424Z,5.40
2017-12-04T20:48:53.550Z,5.40
2017-12-04T20:51:21.561Z,5.40
2017-12-04T20:53:49.614Z,5.40
2017-12-04T20:56:17.659Z,5.40
2017-12-04T20:58:46.180Z,5.40
2017-12-04T21:01:19.710Z,5.40
2017-12-04T21:03:49.023Z,5.30
2017-12-04T21:06:17.099Z,5.30
2017-12-04T21:11:52.080Z,5.40
2017-12-04T21:14:31.904Z,5.30
2017-12-04T21:17:11.616Z,5.40
2017-12-04T21:19:39.773Z,5.30
2017-12-04T21:22:07.862Z,5.30
2017-12-04T21:24:40.122Z,5.40
2017-12-04T21:27:08.968Z,5.30
2017-12-04T21:29:37.067Z,5.30
2017-12-04T21:32:05.182Z,5.30
2017-12-04T21:34:33.294Z,5.30
2017-12-04T21:37:01.346Z,5.30
2017-12-04T21:39:29.520Z,5.30
2017-12-04T21:41:57.559Z,5.30
2017-12-04T21:44:26.406Z,5.30
2017-12-04T21:46:54.533Z,5.30
2017-12-04T21:49:22.699Z,5.30
2017-12-04T21:51:51.515Z,5.30
2017-12-04T21:54:19.599Z,5.30
2017-12-04T21:56:47.656Z,5.30
2017-12-04T21:59:15.679Z,5.30
2017-12-04T22:01:43.796Z,5.30
2017-12-04T22:04:12.791Z,5.30
2017-12-04T22:06:40.941Z,5.30
2017-12-04T22:09:09.052Z,5.30
2017-12-04T22:11:37.182Z,5.30
2017-12-04T22:14:06.015Z,5.30
2017-12-04T22:16:34.260Z,5.30
2017-12-04T22:19:03.232Z,5.30
2017-12-04T22:21:31.411Z,5.30
2017-12-04T22:24:06.671Z,5.30
2017-12-04T22:26:42.328Z,5.30
2017-12-04T22:29:12.114Z,5.30
2017-12-04T22:31:40.178Z,5.30
2017-12-04T22:34:08.393Z,5.20
2017-12-04T22:36:36.606Z,5.20
2017-12-04T22:39:04.664Z,5.20
2017-12-04T22:41:33.057Z,5.20
2017-12-04T22:44:01.128Z,5.30
2017-12-04T22:46:29.226Z,5.30
2017-12-04T22:48:57.322Z,5.20
2017-12-04T22:51:26.218Z,5.20
2017-12-04T22:53:54.389Z,5.20
2017-12-04T22:56:23.237Z,5.20
2017-12-04T22:58:51.318Z,5.10
2017-12-04T23:01:19.420Z,5.20
2017-12-04T23:03:50.040Z,5.20
2017-12-04T23:06:18.248Z,5.20
2017-12-04T23:08:46.302Z,5.20
2017-12-04T23:11:14.450Z,5.20
2017-12-04T23:13:42.516Z,5.20
2017-12-04T23:16:10.609Z,5.20
2017-12-04T23:18:38.659Z,5.10
2017-12-04T23:21:06.831Z,5.20
2017-12-04T23:23:34.849Z,5.20
2017-12-04T23:26:03.849Z,5.20
2017-12-04T23:28:31.924Z,5.20
2017-12-04T23:30:59.984Z,5.10
2017-12-04T23:33:28.021Z,5.10
2017-12-04T23:35:56.130Z,5.10
2017-12-04T23:38:24.219Z,5.20
2017-12-04T23:40:53.127Z,5.10
2017-12-04T23:43:21.084Z,5.10
2017-12-04T23:45:49.197Z,5.20
2017-12-04T23:48:17.168Z,5.10
2017-12-04T23:50:45.174Z,5.10
2017-12-04T23:53:13.156Z,5.10
2017-12-04T23:55:41.948Z,5.10
2017-12-04T23:58:10.121Z,5.10
